Latest Weather Observations for Broken Hill Airport

IDN60801

Issued at 7:06 am EDT Friday 19 December 2014 (issued every 30 minutes, with the page automatically refreshed every 10 minutes)

About weather observations | Map of weather stations | Latest weather observations for NSW | Other Formats
Station Details ID: 047048 Name: BROKEN HILL AIRPORT AWS Lat: -32.00 Lon: 141.47 Height: 281.3 m
Data from the previous 72 hours. | See also: Recent months for locations in New South Wales
Date/Time
EDT
Temp
°C
App
Temp
°C
Dew
Point
Rel
Hum
%
Delta-T
°C
Wind Press
QNH
hPa
Press
MSL
hPa
Rain
since 9 am
mm
Dir
 
Spd
km/h
Gust
km/h
Spd
kts
Gust
kts
19/07:00am 14.6 8.6 5.4 54 4.4 S 26 35 14 19 1017.6 1016.2 0.0
19/06:30am 14.4 8.8 5.5 55 4.3 S 24 30 13 16 1017.2 1015.8 0.0
19/06:00am 14.7 9.7 6.3 57 4.1 S 22 30 12 16 1016.9 1015.5 0.0
19/05:30am 15.3 10.3 6.3 55 4.4 S 22 28 12 15 1016.6 1015.2 0.0
19/05:00am 15.8 10.8 6.5 54 4.6 S 22 30 12 16 1016.1 1014.7 0.0
19/04:00am 17.0 10.4 6.2 49 5.4 S 30 37 16 20 1015.6 1014.2 0.0
19/03:30am 17.6 10.7 6.5 48 5.6 S 32 39 17 21 1015.5 1014.1 0.0
19/03:00am 18.4 13.0 6.3 45 6.1 S 24 35 13 19 1015.2 1013.9 0.0
19/02:30am 18.9 13.5 4.7 39 6.9 S 22 30 12 16 1015.1 1013.8 0.0
19/02:00am 19.5 13.2 4.0 36 7.5 SSW 26 32 14 17 1015.0 1013.7 0.0
19/01:30am 20.2 13.9 3.9 34 7.9 SSW 26 35 14 19 1015.1 1013.8 0.0
19/01:00am 20.8 14.2 4.0 33 8.2 SSW 28 35 15 19 1015.1 1013.8 0.0
19/12:30am 21.5 15.3 4.1 32 8.5 SSW 26 35 14 19 1015.1 1013.8 0.0
19/12:00am 22.3 15.7 4.4 31 8.9 SSW 28 35 15 19 1014.8 1013.5 0.0
 
Date/Time
EDT
Temp
°C
App
Temp
°C
Dew
Point
Rel
Hum
%
Delta-T
°C
Wind Press
QNH
hPa
Press
MSL
hPa
Rain
since 9 am
mm
Dir
 
Spd
km/h
Gust
km/h
Spd
kts
Gust
kts
18/11:30pm 22.9 17.2 4.9 31 9.1 SSW 24 30 13 16 1014.5 1013.1 0.0
18/11:00pm 23.5 17.6 4.0 28 9.7 SSW 24 33 13 18 1014.3 1012.9 0.0
18/10:30pm 24.1 18.6 1.7 23 10.7 SSW 20 26 11 14 1014.0 1012.6 0.0
18/10:00pm 24.9 18.6 1.7 22 11.2 SSW 24 32 13 17 1013.5 1012.1 0.0
18/09:30pm 25.7 18.7 1.8 21 11.6 SSW 28 37 15 20 1013.1 1011.7 0.0
18/09:00pm 26.4 19.5 2.3 21 11.9 SW 28 39 15 21 1012.7 1011.3 0.0
18/08:30pm 27.4 19.5 2.5 20 12.4 SW 33 43 18 23 1012.3 1010.9 0.0
18/08:00pm 28.5 20.2 1.9 18 13.2 SW 35 48 19 26 1011.8 1010.4 0.0
18/07:30pm 29.4 19.9 1.8 17 13.7 SW 41 59 22 32 1011.2 1009.8 0.0
18/07:08pm 30.2 20.7 1.6 16 14.2 SW 41 59 22 32 1010.8 1009.4 0.0
18/07:00pm 30.3 21.2 1.7 16 14.3 SW 39 48 21 26 1010.7 1009.3 0.0
18/06:35pm 31.4 23.0 1.7 15 14.9 SW 35 56 19 30 1010.1 1008.7 0.0
18/06:30pm 31.4 23.6 2.6 16 14.7 SSW 33 46 18 25 1010.1 1008.7 0.0
18/06:05pm 31.4 23.8 2.6 16 14.7 SW 32 57 17 31 1009.9 1008.5 0.0
18/06:00pm 31.6 24.0 2.7 16 14.8 SW 32 43 17 23 1010.0 1008.6 0.0
18/05:32pm 31.7 24.1 2.8 16 14.8 SW 32 50 17 27 1009.9 1008.5 0.0
18/05:30pm 31.4 23.8 2.6 16 14.7 SW 32 43 17 23 1009.9 1008.5 0.0
18/05:02pm 32.0 24.4 3.1 16 14.9 SW 32 50 17 27 1010.1 1008.7 0.0
18/05:00pm 31.2 23.1 3.3 17 14.4 SW 35 50 19 27 1010.1 1008.7 0.0
18/04:30pm 31.2 22.6 2.4 16 14.6 WSW 37 57 20 31 1010.2 1008.8 0.0
18/04:00pm 31.3 22.5 1.6 15 14.9 WSW 37 57 20 31 1010.3 1008.9 0.0
18/03:57pm 31.8 23.1 2.0 15 15.1 WSW 37 57 20 31 1010.2 1008.8 0.0
18/03:49pm 31.0 22.6 1.4 15 14.8 SW 35 50 19 27 1010.1 1008.7 0.0
18/03:30pm 32.0 23.9 1.2 14 15.4 WSW 33 52 18 28 1010.0 1008.6 0.0
18/03:29pm 32.9 25.1 1.9 14 15.8 W 32 50 17 27 1010.0 1008.6 0.0
18/03:22pm 32.2 24.1 1.3 14 15.5 WSW 33 50 18 27 1010.1 1008.7 0.0
18/03:04pm 32.3 24.5 1.4 14 15.5 WSW 32 57 17 31 1009.9 1008.5 0.0
18/03:00pm 31.8 23.9 1.0 14 15.4 WSW 32 46 17 25 1010.1 1008.7 0.0
18/02:30pm 32.7 23.6 1.7 14 15.7 WSW 39 54 21 29 1010.2 1008.8 0.0
18/02:00pm 32.3 23.3 0.4 13 15.8 WSW 37 54 20 29 1010.3 1008.9 0.0
18/01:30pm 31.6 21.8 -0.1 13 15.5 WSW 41 61 22 33 1010.2 1008.8 0.0
18/01:23pm 31.2 21.0 -0.5 13 15.3 WSW 43 65 23 35 1010.2 1008.8 0.0
18/01:21pm 31.4 21.2 -0.3 13 15.4 WSW 43 65 23 35 1010.0 1008.6 0.0
18/01:00pm 31.7 23.6 -0.1 13 15.6 SW 32 54 17 29 1010.0 1008.6 0.0
18/12:40pm 31.5 23.6 -1.3 12 15.7 SW 30 50 16 27 1010.0 1008.6 0.0
18/12:30pm 31.6 24.9 -1.2 12 15.7 SW 24 37 13 20 1010.2 1008.8 0.0
18/12:00pm 30.7 24.3 -1.9 12 15.4 SW 22 35 12 19 1010.3 1008.9 0.0
18/11:30am 29.6 23.2 -1.7 13 14.7 W 22 33 12 18 1010.4 1009.0 0.0
18/11:00am 28.8 22.7 -2.3 13 14.3 WNW 20 33 11 18 1010.5 1009.1 0.0
18/10:30am 27.9 23.2 -2.0 14 13.8 NW 13 20 7 11 1010.7 1009.3 0.0
18/10:00am 26.5 22.2 -1.3 16 12.8 N 11 17 6 9 1010.7 1009.3 0.0
18/09:30am 26.2 22.0 -0.8 17 12.5 NNE 11 20 6 11 1010.6 1009.2 0.0
18/09:00am 25.0 20.3 -1.7 17 12.1 NE 13 17 7 9 1010.4 1009.0 0.0
18/08:30am 23.0 20.7 0.2 22 10.5 SE 2 7 1 4 1010.2 1008.8 0.0
18/08:00am 20.0 18.0 -0.1 26 9.0 CALM 0 4 0 2 1010.0 1008.6 0.0
18/07:30am 19.7 16.0 0.2 27 8.8 NE 9 11 5 6 1009.5 1008.1 0.0
18/07:00am 16.9 14.9 -0.3 31 7.5 CALM 0 0 0 0 1009.1 1007.7 0.0
18/06:30am 16.1 14.1 -0.2 33 7.1 CALM 0 0 0 0 1008.9 1007.5 0.0
18/06:00am 13.7 10.8 -1.1 36 6.1 E 4 9 2 5 1008.5 1007.0 0.0
18/05:30am 16.4 14.2 -1.2 30 7.5 CALM 0 0 0 0 1008.2 1006.7 0.0
18/05:00am 18.1 16.1 -0.2 29 8.1 CALM 0 0 0 0 1007.5 1006.1 0.0
18/04:30am 16.8 14.6 1.3 35 6.9 NE 2 6 1 3 1007.2 1005.8 0.0
18/04:00am 17.4 14.0 -1.8 27 8.1 NE 6 7 3 4 1006.9 1005.5 0.0
18/03:30am 19.0 15.2 -0.9 26 8.7 ENE 9 11 5 6 1007.3 1005.9 0.0
18/03:00am 20.1 16.7 -0.5 25 9.2 NE 7 9 4 5 1007.2 1005.8 0.0
18/02:30am 19.5 15.7 -0.5 26 8.8 ENE 9 11 5 6 1007.0 1005.6 0.0
18/02:00am 20.9 16.4 -0.4 24 9.6 NE 13 15 7 8 1007.0 1005.6 0.0
18/01:30am 21.4 16.6 0.0 24 9.7 ENE 15 17 8 9 1007.0 1005.6 0.0
18/01:00am 21.6 17.2 0.2 24 9.8 E 13 17 7 9 1007.1 1005.7 0.0
18/12:30am 21.4 16.5 -0.6 23 9.9 E 15 17 8 9 1007.6 1006.2 0.0
18/12:00am 22.6 17.7 -0.8 21 10.6 ENE 15 17 8 9 1007.8 1006.4 0.0
 
Date/Time
EDT
Temp
°C
App
Temp
°C
Dew
Point
Rel
Hum
%
Delta-T
°C
Wind Press
QNH
hPa
Press
MSL
hPa
Rain
since 9 am
mm
Dir
 
Spd
km/h
Gust
km/h
Spd
kts
Gust
kts
17/11:30pm 23.1 18.9 -1.1 20 10.9 ENE 11 13 6 7 1007.8 1006.4 0.0
17/11:00pm 23.2 19.0 -1.0 20 11.0 ENE 11 13 6 7 1007.6 1006.2 0.0
17/10:30pm 22.7 18.4 -1.4 20 10.8 SSE 11 15 6 8 1007.6 1006.2 0.0
17/10:00pm 22.8 18.2 -1.3 20 10.8 SSE 13 15 7 8 1007.5 1006.1 0.0
17/09:30pm 22.9 18.6 -1.9 19 11.0 SSE 11 13 6 7 1007.3 1005.9 0.0
17/09:00pm 24.0 19.6 -2.5 17 11.7 SSE 11 13 6 7 1006.9 1005.5 0.0
17/08:30pm 26.1 21.3 -2.5 15 12.9 S 13 15 7 8 1006.8 1005.4 0.0
17/08:00pm 27.2 23.2 -2.6 14 13.5 S 9 13 5 7 1006.7 1005.3 0.0
17/07:30pm 27.8 22.3 -2.1 14 13.7 S 17 20 9 11 1006.8 1005.4 0.0
17/07:00pm 28.0 23.7 -2.0 14 13.9 SSW 11 17 6 9 1006.8 1005.4 0.0
17/06:30pm 28.5 23.4 -1.6 14 14.1 SW 15 24 8 13 1006.5 1005.1 0.0
17/06:00pm 28.2 23.9 -1.8 14 13.9 SSW 11 20 6 11 1006.4 1005.0 0.0
17/05:30pm 28.5 24.2 -1.6 14 14.0 WSW 11 35 6 19 1006.7 1005.3 0.0
17/05:00pm 26.9 21.8 -1.9 15 13.2 SW 15 24 8 13 1007.2 1005.8 0.0
17/04:30pm 27.6 23.5 -0.5 16 13.2 NW 11 22 6 12 1007.4 1006.0 0.0
17/04:00pm 27.1 21.8 -0.9 16 13.1 SW 17 24 9 13 1007.8 1006.4 0.0
17/03:30pm 26.5 20.8 -0.5 17 12.7 WSW 19 24 10 13 1008.3 1006.8 0.0
17/03:00pm 26.0 21.9 -0.1 18 12.3 SW 11 19 6 10 1008.4 1006.9 0.0
17/02:30pm 25.8 22.2 0.5 19 12.0 WSW 9 26 5 14 1008.6 1007.2 0.0
17/02:00pm 24.3 19.1 -0.1 20 11.3 SSW 17 24 9 13 1008.9 1007.5 0.0
17/01:30pm 24.8 20.6 1.7 22 11.1 S 13 24 7 13 1009.2 1007.8 0.0
17/01:00pm 22.8 17.7 0.6 23 10.3 S 17 30 9 16 1009.7 1008.3 0.0
17/12:30pm 22.9 18.6 1.3 24 10.2 SSE 13 22 7 12 1010.0 1008.6 0.0
17/12:00pm 21.1 16.3 0.3 25 9.5 SSE 15 22 8 12 1010.3 1008.9 0.0
17/11:30am 21.3 16.3 1.6 27 9.2 SSE 17 30 9 16 1010.3 1008.9 0.0
17/11:00am 20.4 15.1 1.8 29 8.7 SSE 19 26 10 14 1010.2 1008.8 0.0
17/10:30am 19.8 14.5 1.7 30 8.4 SE 19 33 10 18 1010.3 1008.9 0.0
17/10:00am 18.5 12.6 1.5 32 7.8 SE 22 32 12 17 1010.6 1009.2 0.0
17/09:30am 18.5 13.1 2.4 34 7.5 SE 20 28 11 15 1010.6 1009.2 0.0
17/09:00am 17.5 11.1 1.1 33 7.4 SE 24 33 13 18 1010.8 1009.4 0.0
17/08:30am 16.7 10.2 2.7 39 6.5 SE 26 33 14 18 1010.6 1009.2 0.0
17/08:00am 15.6 9.2 3.1 43 5.8 SSE 26 33 14 18 1010.3 1008.9 0.0
17/07:30am 15.2 9.5 3.0 44 5.6 SSE 22 28 12 15 1010.2 1008.8 0.0
17/07:00am 14.2 9.5 3.1 47 5.1 SSE 17 20 9 11 1009.8 1008.4 0.0
17/06:30am 13.4 9.0 2.9 49 4.7 SSE 15 19 8 10 1009.4 1008.0 0.0
17/06:00am 14.0 8.9 2.9 47 5.0 SSE 19 22 10 12 1009.3 1007.9 0.0
17/05:30am 14.4 9.3 4.1 50 4.8 SSE 20 26 11 14 1008.9 1007.5 0.0
17/05:00am 14.6 9.5 4.3 50 4.8 SSE 20 28 11 15 1008.7 1007.3 0.0
17/04:30am 15.1 9.7 4.5 49 5.0 SSE 22 32 12 17 1008.4 1006.9 0.0
17/04:00am 15.6 9.1 4.9 49 5.1 SSE 28 41 15 22 1008.3 1006.8 0.0
17/03:30am 16.1 10.1 5.4 49 5.2 SSE 26 37 14 20 1008.2 1006.7 0.0
17/03:00am 16.7 10.1 5.9 49 5.3 S 30 41 16 22 1008.1 1006.6 0.0
17/02:30am 17.2 11.0 6.1 48 5.5 S 28 35 15 19 1008.1 1006.6 0.0
17/02:00am 17.9 10.7 6.1 46 5.9 S 33 46 18 25 1007.7 1006.3 0.0
17/01:30am 19.3 11.8 3.5 35 7.6 SSW 32 41 17 22 1007.2 1005.8 0.0
17/01:00am 19.9 12.3 4.0 35 7.7 SSW 33 43 18 23 1007.3 1005.9 0.0
17/12:30am 20.6 11.6 6.2 39 7.3 SSW 43 56 23 30 1006.9 1005.5 0.0
17/12:00am 22.1 14.2 6.3 36 8.1 S 37 48 20 26 1006.8 1005.4 0.0
 
Date/Time
EDT
Temp
°C
App
Temp
°C
Dew
Point
Rel
Hum
%
Delta-T
°C
Wind Press
QNH
hPa
Press
MSL
hPa
Rain
since 9 am
mm
Dir
 
Spd
km/h
Gust
km/h
Spd
kts
Gust
kts
16/11:30pm 22.7 14.2 6.9 36 8.2 SSW 41 54 22 29 1006.5 1005.1 0.0
16/11:00pm 23.9 16.0 7.9 36 8.6 SSW 39 52 21 28 1006.2 1004.8 0.0
16/10:30pm 24.9 16.7 8.4 35 9.0 SSW 41 57 22 31 1005.6 1004.2 0.0
16/10:00pm 26.9 19.0 7.9 30 10.4 SSW 39 46 21 25 1005.0 1003.5 0.0
16/09:30pm 27.9 20.6 7.2 27 11.2 SSW 35 46 19 25 1004.5 1003.0 0.0
16/09:00pm 29.0 20.8 6.4 24 12.2 SW 39 50 21 27 1003.7 1002.3 0.0
16/08:39pm 29.7 21.1 6.4 23 12.5 SW 41 59 22 32 1003.2 1001.8 0.0
16/08:30pm 30.2 21.1 6.1 22 12.9 SW 43 56 23 30 1003.0 1001.6 0.0
16/08:00pm 32.4 23.1 5.0 18 14.7 SW 43 56 23 30 1002.2 1000.8 0.0
16/07:38pm 34.2 24.7 3.9 15 16.1 SW 43 61 23 33 1001.8 1000.3 0.0
16/07:30pm 35.4 25.9 3.8 14 16.8 WSW 43 57 23 31 1001.6 1000.1 0.0
16/07:15pm 36.2 28.2 7.3 17 16.3 W 39 59 21 32 1001.3 999.8 0.0
16/07:00pm 34.9 26.8 8.6 20 15.1 W 41 56 22 30 1001.1 999.6 0.0
16/06:30pm 35.5 26.6 7.5 18 15.9 W 44 67 24 36 1000.8 999.3 0.0
16/06:22pm 36.1 27.1 6.3 16 16.6 W 43 61 23 33 1000.4 999.0 0.0
16/06:00pm 37.2 27.8 7.2 16 17.1 W 46 61 25 33 1000.4 999.0 0.0
16/05:33pm 37.0 27.7 6.1 15 17.2 WNW 44 63 24 34 1000.4 999.0 0.0
16/05:30pm 37.1 27.9 6.2 15 17.2 WNW 44 57 24 31 1000.4 999.0 0.0
16/05:00pm 37.8 28.5 5.7 14 17.9 W 44 72 24 39 1000.8 999.3 0.0
16/04:42pm 37.3 27.7 4.3 13 17.9 WNW 44 65 24 35 1001.0 999.5 0.0
16/04:40pm 37.1 27.3 5.2 14 17.5 WNW 46 65 25 35 1001.0 999.5 0.0
16/04:30pm 37.4 29.1 4.4 13 17.9 W 37 57 20 31 1001.2 999.7 0.0
16/04:14pm 37.3 29.5 3.1 12 18.2 W 33 54 18 29 1001.4 999.9 0.0
16/04:00pm 37.2 29.1 3.1 12 18.2 WNW 35 59 19 32 1001.8 1000.3 0.0
16/03:30pm 36.4 28.5 2.4 12 17.9 WNW 33 54 18 29 1002.3 1000.9 0.0
16/03:00pm 35.6 26.9 1.8 12 17.5 NW 37 56 20 30 1002.6 1001.2 0.0
16/02:30pm 36.3 29.6 3.5 13 17.5 NW 28 52 15 28 1002.8 1001.4 0.0
16/02:18pm 34.7 27.8 2.3 13 16.8 NW 28 46 15 25 1003.1 1001.7 0.0
16/02:00pm 34.8 27.7 3.4 14 16.6 NW 30 46 16 25 1003.3 1001.9 0.0
16/01:57pm 34.6 27.6 2.2 13 16.7 NW 28 46 15 25 1003.3 1001.9 0.0
16/01:30pm 35.0 28.7 3.5 14 16.7 WNW 26 44 14 24 1003.5 1002.1 0.0
16/01:00pm 35.2 29.3 3.7 14 16.8 WNW 24 39 13 21 1003.6 1002.2 0.0
16/12:30pm 34.3 29.4 4.9 16 15.9 NW 20 33 11 18 1003.8 1002.4 0.0
16/12:00pm 32.4 28.6 5.8 19 14.4 N 15 22 8 12 1003.9 1002.5 0.0
16/11:30am 30.4 26.5 7.0 23 12.8 NNE 17 26 9 14 1004.4 1002.9 0.0
16/11:00am 29.7 25.5 7.6 25 12.2 N 19 24 10 13 1004.9 1003.4 0.0
16/10:30am 29.7 26.9 8.7 27 11.7 NE 13 20 7 11 1005.1 1003.6 0.0
16/10:00am 28.4 26.7 7.6 27 11.4 NNE 6 11 3 6 1005.2 1003.7 0.0
16/09:30am 27.2 26.1 8.6 31 10.3 NW 4 7 2 4 1005.5 1004.1 0.0
16/09:00am 25.4 22.4 9.3 36 8.9 SSW 15 17 8 9 1005.3 1003.8 0.0
16/08:30am 23.8 19.8 9.0 39 8.1 SW 20 26 11 14 1005.1 1003.6 0.0
16/08:00am 23.2 19.4 9.2 41 7.7 SSW 19 24 10 13 1004.8 1003.3 0.0

Other Formats:

Comma delimited format used in spreadsheet applications
http://www.bom.gov.au/fwo/IDN60801/IDN60801.94691.axf

JavaScript Object Notation format (JSON) in row-major order
http://www.bom.gov.au/fwo/IDN60801/IDN60801.94691.json